Time;durP1;ratioP1;P1;durP2;ratioP2;P2;SDS_P1;SDS_P2;PMS_P1;PMS_P2;Temp;Humidity;BMP_temperature;BMP_pressure;BME280_temperature;BME280_humidity;BME280_pressure;Samples;Min_cycle;Max_cycle;Signal;HPM_P1;HPM_P2
2023/11/15 00:04:23;;;;;;;11.10;5.28;;;;;;;;;;10497117;28;20297;-70
2023/11/15 00:09:23;;;;;;;16.13;6.05;;;;;;;;;;10494859;28;20041;-69
2023/11/15 00:14:23;;;;;;;15.85;6.15;;;;;;;;;;10494067;28;20036;-69
2023/11/15 00:19:23;;;;;;;11.13;4.95;;;;;;;;;;10493135;28;20098;-69
2023/11/15 00:24:24;;;;;;;12.37;4.97;;;;;;;;;;10494261;28;20067;-70
2023/11/15 00:29:24;;;;;;;13.88;5.38;;;;;;;;;;10497904;28;20303;-70
2023/11/15 00:34:24;;;;;;;10.50;5.17;;;;;;;;;;10503351;28;20324;-69
2023/11/15 00:39:25;;;;;;;16.10;5.77;;;;;;;;;;10489326;28;20025;-69
2023/11/15 00:44:25;;;;;;;11.70;5.55;;;;;;;;;;10506826;28;20028;-69
2023/11/15 00:49:25;;;;;;;14.48;5.68;;;;;;;;;;10493353;28;20020;-69
2023/11/15 00:54:25;;;;;;;18.08;5.95;;;;;;;;;;10506607;28;20025;-69
2023/11/15 00:59:36;;;;;;;24.00;6.40;;;;;;;;;;10506552;28;20095;-68
2023/11/15 01:04:37;;;;;;;13.73;5.82;;;;;;;;;;10505831;28;20346;-69
2023/11/15 01:09:38;;;;;;;11.63;5.63;;;;;;;;;;10506161;28;20135;-68
2023/11/15 01:14:38;;;;;;;13.13;5.57;;;;;;;;;;10505667;28;20180;-69
2023/11/15 01:19:39;;;;;;;11.85;5.88;;;;;;;;;;10505297;28;20109;-70
2023/11/15 01:24:41;;;;;;;14.27;5.82;;;;;;;;;;10505783;28;20028;-69
2023/11/15 01:29:41;;;;;;;13.73;6.00;;;;;;;;;;10505655;28;20317;-68
2023/11/15 01:34:41;;;;;;;16.40;6.63;;;;;;;;;;10505149;28;20041;-69
2023/11/15 01:39:42;;;;;;;14.48;6.97;;;;;;;;;;10505090;28;20092;-69
2023/11/15 01:44:42;;;;;;;17.27;6.23;;;;;;;;;;10505353;28;20222;-70
2023/11/15 01:49:42;;;;;;;16.35;5.95;;;;;;;;;;10496106;28;20033;-69
2023/11/15 01:54:43;;;;;;;13.00;6.60;;;;;;;;;;10481823;28;20148;-69
2023/11/15 01:59:44;;;;;;;11.63;6.13;;;;;;;;;;10504789;28;20224;-69
2023/11/15 02:04:44;;;;;;;15.27;5.80;;;;;;;;;;10503988;28;20028;-69
2023/11/15 02:09:44;;;;;;;13.50;6.65;;;;;;;;;;10512012;28;20146;-68
2023/11/15 02:14:45;;;;;;;14.00;6.15;;;;;;;;;;10504151;28;20028;-69
2023/11/15 02:19:45;;;;;;;14.83;6.53;;;;;;;;;;10503697;28;20028;-69
2023/11/15 02:24:45;;;;;;;14.57;6.45;;;;;;;;;;10503514;28;20047;-69
2023/11/15 02:29:46;;;;;;;9.77;5.20;;;;;;;;;;10503529;28;20043;-69
2023/11/15 02:34:46;;;;;;;12.85;5.65;;;;;;;;;;10502923;28;20112;-69
2023/11/15 02:39:47;;;;;;;12.53;5.23;;;;;;;;;;10503054;28;20302;-69
2023/11/15 02:44:47;;;;;;;13.65;5.68;;;;;;;;;;10484795;28;20059;-68
2023/11/15 02:49:49;;;;;;;11.70;4.72;;;;;;;;;;10502918;28;20548;-69
2023/11/15 02:54:51;;;;;;;13.98;6.45;;;;;;;;;;10506458;28;20035;-69
2023/11/15 02:59:51;;;;;;;15.88;6.20;;;;;;;;;;10510866;28;20330;-69
2023/11/15 03:04:52;;;;;;;16.85;5.72;;;;;;;;;;10484255;28;20060;-68
2023/11/15 03:09:52;;;;;;;9.55;5.43;;;;;;;;;;10501498;28;20013;-71
2023/11/15 03:14:52;;;;;;;20.10;5.50;;;;;;;;;;10501228;28;20356;-69
2023/11/15 03:19:52;;;;;;;12.50;5.07;;;;;;;;;;10501411;28;20016;-69
2023/11/15 03:24:53;;;;;;;8.57;4.80;;;;;;;;;;10500996;28;20307;-69
2023/11/15 03:29:54;;;;;;;16.55;6.00;;;;;;;;;;10501213;28;20191;-68
2023/11/15 03:34:54;;;;;;;10.32;5.28;;;;;;;;;;10501098;28;20036;-68
2023/11/15 03:39:54;;;;;;;13.38;5.82;;;;;;;;;;10501091;28;20042;-68
2023/11/15 03:44:54;;;;;;;15.65;6.15;;;;;;;;;;10500905;28;20078;-70
2023/11/15 03:49:55;;;;;;;13.50;6.07;;;;;;;;;;10501236;28;20333;-69
2023/11/15 03:54:56;;;;;;;12.60;5.15;;;;;;;;;;10501109;28;20056;-69
2023/11/15 03:59:58;;;;;;;10.52;5.15;;;;;;;;;;10500594;28;20196;-68
2023/11/15 04:04:59;;;;;;;9.63;4.82;;;;;;;;;;10500570;28;20088;-69
2023/11/15 04:09:59;;;;;;;11.20;5.10;;;;;;;;;;10500468;28;20020;-68
2023/11/15 04:14:59;;;;;;;12.20;4.65;;;;;;;;;;10498997;28;20059;-70
2023/11/15 04:19:59;;;;;;;11.27;3.83;;;;;;;;;;10505290;28;20028;-69
2023/11/15 04:25:00;;;;;;;12.63;4.13;;;;;;;;;;10499825;28;20322;-69
2023/11/15 04:30:00;;;;;;;8.07;4.25;;;;;;;;;;10481470;28;20090;-69
2023/11/15 04:35:03;;;;;;;7.38;3.67;;;;;;;;;;10481508;28;20032;-70
2023/11/15 04:40:04;;;;;;;13.30;4.25;;;;;;;;;;10499903;28;20039;-70
2023/11/15 04:45:04;;;;;;;10.50;3.35;;;;;;;;;;10481279;28;20025;-69
2023/11/15 04:50:04;;;;;;;6.15;3.13;;;;;;;;;;10499471;28;20028;-70
2023/11/15 04:55:05;;;;;;;9.57;3.17;;;;;;;;;;10498725;28;20063;-69
2023/11/15 05:00:09;;;;;;;6.18;3.40;;;;;;;;;;10498522;28;20122;-70
2023/11/15 05:05:10;;;;;;;7.63;3.58;;;;;;;;;;10504153;28;20020;-69
2023/11/15 05:10:11;;;;;;;8.43;3.25;;;;;;;;;;10498553;28;20025;-70
2023/11/15 05:15:11;;;;;;;7.72;3.45;;;;;;;;;;10509239;28;20062;-69
2023/11/15 05:20:11;;;;;;;14.90;3.20;;;;;;;;;;10509710;28;20031;-69
2023/11/15 05:25:12;;;;;;;16.42;4.53;;;;;;;;;;10487971;28;20525;-69
2023/11/15 05:30:13;;;;;;;10.80;4.60;;;;;;;;;;10487373;28;20108;-69
2023/11/15 05:35:14;;;;;;;9.05;4.25;;;;;;;;;;10458836;28;20041;-69
2023/11/15 05:40:18;;;;;;;13.82;4.40;;;;;;;;;;10482436;28;20219;-69
2023/11/15 05:45:18;;;;;;;23.75;4.85;;;;;;;;;;10501852;28;20162;-68
2023/11/15 05:50:19;;;;;;;12.02;4.50;;;;;;;;;;10503865;28;20187;-69
2023/11/15 05:55:19;;;;;;;8.27;3.95;;;;;;;;;;10504465;28;20044;-67
2023/11/15 06:00:20;;;;;;;13.77;4.50;;;;;;;;;;10502135;28;20063;-68
2023/11/15 06:05:20;;;;;;;14.43;4.40;;;;;;;;;;10473215;28;20039;-69
2023/11/15 06:10:21;;;;;;;15.30;4.47;;;;;;;;;;10504349;28;20185;-67
2023/11/15 06:15:21;;;;;;;12.77;3.63;;;;;;;;;;10502557;28;20024;-68
2023/11/15 06:20:21;;;;;;;14.23;3.83;;;;;;;;;;10500654;28;20227;-68
2023/11/15 06:25:22;;;;;;;17.23;4.63;;;;;;;;;;10481834;28;20020;-68
2023/11/15 06:30:22;;;;;;;16.90;3.60;;;;;;;;;;10500202;28;20194;-68
2023/11/15 06:35:22;;;;;;;12.98;3.90;;;;;;;;;;10502906;28;20350;-68
2023/11/15 06:40:22;;;;;;;13.95;4.10;;;;;;;;;;10503740;28;20300;-68
2023/11/15 06:45:23;;;;;;;10.25;4.10;;;;;;;;;;10502336;28;20112;-68
2023/11/15 06:50:25;;;;;;;12.98;6.15;;;;;;;;;;10484186;28;20024;-69
2023/11/15 06:55:26;;;;;;;11.25;6.55;;;;;;;;;;10484576;28;20028;-69
2023/11/15 07:00:26;;;;;;;10.43;4.38;;;;;;;;;;10502230;28;20032;-74
2023/11/15 07:05:28;;;;;;;13.35;5.60;;;;;;;;;;10501539;28;20079;-69
2023/11/15 07:10:30;;;;;;;25.20;5.10;;;;;;;;;;10501987;28;20315;-68
2023/11/15 07:15:30;;;;;;;19.77;5.68;;;;;;;;;;10501733;28;20032;-68
2023/11/15 07:20:30;;;;;;;16.27;4.80;;;;;;;;;;10498199;28;20266;-69
2023/11/15 07:25:31;;;;;;;11.93;4.57;;;;;;;;;;10496628;28;20649;-68
2023/11/15 07:30:31;;;;;;;17.38;5.72;;;;;;;;;;10499064;28;20042;-67
2023/11/15 07:35:34;;;;;;;12.88;3.75;;;;;;;;;;10498848;28;20356;-70
2023/11/15 07:40:37;;;;;;;8.60;3.80;;;;;;;;;;10498234;28;20032;-68
2023/11/15 07:45:38;;;;;;;8.80;3.72;;;;;;;;;;10480373;28;20351;-68
2023/11/15 07:50:38;;;;;;;12.27;4.43;;;;;;;;;;10497682;28;20345;-67
2023/11/15 07:55:39;;;;;;;11.23;4.35;;;;;;;;;;10497125;28;20055;-69
2023/11/15 08:00:40;;;;;;;14.38;4.75;;;;;;;;;;10497510;28;20125;-68
2023/11/15 08:05:40;;;;;;;16.40;6.03;;;;;;;;;;10477786;28;20033;-68
2023/11/15 08:10:48;;;;;;;11.80;3.63;;;;;;;;;;10497698;28;20091;-68
2023/11/15 08:15:48;;;;;;;12.60;3.65;;;;;;;;;;10497392;28;20032;-68
2023/11/15 08:20:49;;;;;;;6.65;2.85;;;;;;;;;;10497105;28;20029;-68
2023/11/15 08:25:51;;;;;;;4.77;2.57;;;;;;;;;;10497119;28;20091;-68
2023/11/15 08:30:51;;;;;;;9.48;2.63;;;;;;;;;;10491210;28;20281;-68
2023/11/15 08:35:53;;;;;;;9.27;3.33;;;;;;;;;;10497506;28;20024;-68
2023/11/15 08:40:55;;;;;;;11.07;3.13;;;;;;;;;;10497468;28;20095;-68
2023/11/15 08:45:57;;;;;;;10.52;3.05;;;;;;;;;;10497810;28;20101;-69
2023/11/15 08:50:58;;;;;;;10.45;3.08;;;;;;;;;;10506338;28;20047;-68
2023/11/15 08:55:58;;;;;;;12.40;3.22;;;;;;;;;;10505964;28;20035;-69
2023/11/15 09:01:01;;;;;;;7.70;3.40;;;;;;;;;;10505886;28;20223;-68
2023/11/15 09:06:02;;;;;;;8.75;4.05;;;;;;;;;;10505889;28;20274;-68
2023/11/15 09:11:02;;;;;;;17.40;4.90;;;;;;;;;;10506707;28;20029;-70
2023/11/15 09:16:03;;;;;;;15.20;4.75;;;;;;;;;;10505336;28;20424;-69
2023/11/15 09:21:04;;;;;;;17.25;4.80;;;;;;;;;;10505087;28;20032;-67
2023/11/15 09:26:09;;;;;;;18.05;6.30;;;;;;;;;;10486998;28;20087;-68
2023/11/15 09:31:12;;;;;;;15.95;5.63;;;;;;;;;;10504789;28;20060;-67
2023/11/15 09:36:12;;;;;;;15.38;5.57;;;;;;;;;;10504519;28;20051;-68
2023/11/15 09:41:12;;;;;;;10.87;5.00;;;;;;;;;;10504467;28;20055;-67
2023/11/15 09:46:13;;;;;;;15.77;4.53;;;;;;;;;;10505214;28;20034;-67
2023/11/15 09:51:14;;;;;;;11.20;4.40;;;;;;;;;;10504727;28;20750;-67
2023/11/15 09:56:15;;;;;;;15.82;5.45;;;;;;;;;;10503695;28;20070;-68
2023/11/15 10:01:16;;;;;;;9.93;4.40;;;;;;;;;;10486055;28;20289;-67
2023/11/15 10:06:16;;;;;;;8.82;3.58;;;;;;;;;;10504816;28;20051;-67
2023/11/15 10:11:17;;;;;;;10.02;4.68;;;;;;;;;;10503526;28;20322;-66
2023/11/15 10:16:22;;;;;;;9.20;4.47;;;;;;;;;;10503430;28;20326;-67
2023/11/15 10:21:22;;;;;;;7.40;4.28;;;;;;;;;;10503071;28;20024;-67
2023/11/15 10:26:36;;;;;;;8.98;4.15;;;;;;;;;;10485042;28;20056;-69
2023/11/15 10:31:47;;;;;;;5.30;3.70;;;;;;;;;;10502155;28;20322;-66
2023/11/15 10:37:12;;;;;;;8.07;3.78;;;;;;;;;;10461414;28;20029;-67
2023/11/15 10:42:14;;;;;;;6.05;3.08;;;;;;;;;;10462179;28;20097;-67
2023/11/15 10:47:19;;;;;;;10.30;3.45;;;;;;;;;;10502037;28;20310;-69
2023/11/15 10:52:21;;;;;;;4.40;2.30;;;;;;;;;;10496443;28;20074;-68
2023/11/15 10:57:22;;;;;;;1.38;1.02;;;;;;;;;;10497847;28;20036;-68
2023/11/15 11:02:24;;;;;;;1.33;1.10;;;;;;;;;;10496788;28;20047;-68
2023/11/15 11:07:29;;;;;;;1.85;1.00;;;;;;;;;;10498096;28;20034;-68
2023/11/15 11:12:34;;;;;;;1.45;1.00;;;;;;;;;;10509949;28;20139;-67
2023/11/15 11:17:35;;;;;;;2.88;1.45;;;;;;;;;;10497187;28;20226;-68
2023/11/15 11:22:35;;;;;;;1.35;0.82;;;;;;;;;;10495763;28;20037;-67
2023/11/15 11:27:54;;;;;;;1.90;1.25;;;;;;;;;;10495430;28;20110;-67
2023/11/15 11:33:09;;;;;;;3.67;1.85;;;;;;;;;;10495204;28;20071;-68
2023/11/15 11:38:14;;;;;;;2.20;0.93;;;;;;;;;;10494652;28;20277;-67
2023/11/15 11:43:15;;;;;;;3.17;1.40;;;;;;;;;;10456945;28;20028;-67
2023/11/15 11:48:25;;;;;;;9.80;1.23;;;;;;;;;;10495119;28;20059;-67
2023/11/15 11:53:26;;;;;;;2.45;1.20;;;;;;;;;;10495974;28;20061;-68
2023/11/15 11:58:27;;;;;;;1.52;1.10;;;;;;;;;;10500689;28;20028;-67
2023/11/15 12:03:30;;;;;;;1.55;0.98;;;;;;;;;;10496243;28;20358;-67
2023/11/15 12:08:31;;;;;;;1.60;0.93;;;;;;;;;;10496214;28;20083;-68
2023/11/15 12:13:40;;;;;;;5.90;1.65;;;;;;;;;;10493836;28;20445;-67
2023/11/15 12:18:41;;;;;;;3.83;1.92;;;;;;;;;;10496160;28;20249;-69
2023/11/15 12:23:41;;;;;;;5.20;2.42;;;;;;;;;;10495696;28;20020;-68
2023/11/15 12:28:41;;;;;;;3.65;1.80;;;;;;;;;;10495446;28;20361;-68
2023/11/15 12:33:43;;;;;;;5.18;2.13;;;;;;;;;;10475122;28;20249;-70
2023/11/15 12:38:54;;;;;;;4.45;1.75;;;;;;;;;;10493420;28;20054;-69
2023/11/15 12:44:01;;;;;;;3.65;2.10;;;;;;;;;;10494331;28;20020;-69
2023/11/15 12:49:01;;;;;;;3.57;2.00;;;;;;;;;;10494464;28;20250;-69
2023/11/15 12:54:03;;;;;;;4.68;2.33;;;;;;;;;;10495344;28;20024;-69
2023/11/15 12:59:03;;;;;;;8.55;3.45;;;;;;;;;;10496280;28;20032;-68
2023/11/15 13:04:03;;;;;;;6.55;2.70;;;;;;;;;;10497290;28;20024;-68
2023/11/15 13:09:04;;;;;;;4.80;3.13;;;;;;;;;;10494660;28;20330;-69
2023/11/15 13:14:04;;;;;;;5.10;2.58;;;;;;;;;;10496335;28;20267;-68
2023/11/15 13:19:04;;;;;;;5.85;2.55;;;;;;;;;;10496714;28;20146;-69
2023/11/15 13:24:05;;;;;;;3.15;2.08;;;;;;;;;;10495764;28;20422;-70
2023/11/15 13:29:05;;;;;;;3.05;1.85;;;;;;;;;;10499737;28;20204;-69
2023/11/15 13:34:06;;;;;;;1.55;1.27;;;;;;;;;;10496082;28;20029;-69
2023/11/15 13:39:06;;;;;;;4.40;1.52;;;;;;;;;;10502144;28;20147;-69
2023/11/15 13:44:07;;;;;;;2.85;1.92;;;;;;;;;;10503280;28;20035;-68
2023/11/15 13:49:08;;;;;;;4.63;1.60;;;;;;;;;;10515812;28;20098;-67
2023/11/15 13:54:09;;;;;;;9.10;2.38;;;;;;;;;;10502816;28;20037;-69
2023/11/15 13:59:09;;;;;;;4.40;2.28;;;;;;;;;;10502286;28;20235;-69
2023/11/15 14:04:09;;;;;;;2.97;2.20;;;;;;;;;;10502647;28;20360;-69
2023/11/15 14:09:12;;;;;;;6.22;1.90;;;;;;;;;;10503284;28;20044;-69
2023/11/15 14:14:12;;;;;;;3.25;1.63;;;;;;;;;;10462891;28;20086;-69
2023/11/15 14:19:14;;;;;;;3.10;1.55;;;;;;;;;;10500441;28;20069;-69
2023/11/15 14:24:14;;;;;;;3.25;1.63;;;;;;;;;;10502941;28;20104;-68
2023/11/15 14:29:14;;;;;;;2.25;2.00;;;;;;;;;;10502484;28;20036;-68
2023/11/15 14:34:14;;;;;;;2.15;1.15;;;;;;;;;;10502541;28;20037;-69
2023/11/15 14:39:15;;;;;;;3.10;1.83;;;;;;;;;;10502606;28;20444;-68
2023/11/15 14:44:16;;;;;;;2.83;1.33;;;;;;;;;;10502054;28;20067;-69
2023/11/15 14:49:16;;;;;;;2.58;1.30;;;;;;;;;;10506902;28;20032;-69
2023/11/15 14:54:20;;;;;;;2.00;1.20;;;;;;;;;;10502397;28;20249;-68
2023/11/15 14:59:20;;;;;;;1.25;1.13;;;;;;;;;;10501597;28;20109;-68
2023/11/15 15:04:21;;;;;;;2.78;1.40;;;;;;;;;;10499332;28;20033;-69
2023/11/15 15:09:21;;;;;;;4.53;1.27;;;;;;;;;;10499234;28;20044;-68
2023/11/15 15:14:22;;;;;;;2.38;1.45;;;;;;;;;;10499724;28;20032;-69
2023/11/15 15:19:22;;;;;;;3.42;1.08;;;;;;;;;;10499075;28;20365;-69
2023/11/15 15:24:22;;;;;;;1.95;0.82;;;;;;;;;;10499251;28;20338;-68
2023/11/15 15:29:23;;;;;;;3.63;1.20;;;;;;;;;;10498424;28;20043;-68
2023/11/15 15:34:23;;;;;;;2.47;1.40;;;;;;;;;;10498513;28;20327;-71
2023/11/15 15:39:25;;;;;;;2.03;1.83;;;;;;;;;;10498527;28;20041;-68
2023/11/15 15:44:26;;;;;;;1.38;1.10;;;;;;;;;;10497982;28;20516;-69
2023/11/15 15:49:26;;;;;;;2.07;1.10;;;;;;;;;;10480120;28;20063;-68
2023/11/15 15:54:26;;;;;;;3.17;1.90;;;;;;;;;;10498496;28;20358;-70
2023/11/15 15:59:26;;;;;;;3.50;1.73;;;;;;;;;;10497469;28;20238;-71
2023/11/15 16:04:27;;;;;;;2.42;1.70;;;;;;;;;;10497039;28;20218;-70
2023/11/15 16:09:27;;;;;;;1.27;1.10;;;;;;;;;;10497698;28;20044;-69
2023/11/15 16:14:27;;;;;;;1.23;0.90;;;;;;;;;;10480086;28;20615;-69
2023/11/15 16:19:28;;;;;;;2.33;1.17;;;;;;;;;;10496970;28;20342;-70
2023/11/15 16:24:28;;;;;;;7.28;1.90;;;;;;;;;;10497443;28;20158;-69
2023/11/15 16:29:30;;;;;;;1.88;1.30;;;;;;;;;;10497360;28;20318;-74
2023/11/15 16:34:30;;;;;;;3.28;1.40;;;;;;;;;;10474328;28;20036;-73
2023/11/15 16:39:30;;;;;;;3.95;1.88;;;;;;;;;;10471757;28;20101;-74
2023/11/15 16:44:33;;;;;;;5.47;1.50;;;;;;;;;;10471049;28;20040;-77
2023/11/15 16:49:33;;;;;;;5.25;2.70;;;;;;;;;;10461650;28;20409;-72
2023/11/15 16:54:34;;;;;;;9.88;2.10;;;;;;;;;;10479232;28;20095;-74
2023/11/15 16:59:35;;;;;;;3.45;1.95;;;;;;;;;;10478310;28;20103;-73
2023/11/15 17:04:36;;;;;;;7.55;1.92;;;;;;;;;;10462118;28;20037;-77
2023/11/15 17:09:36;;;;;;;3.63;1.67;;;;;;;;;;10463875;28;20376;-82
2023/11/15 17:14:36;;;;;;;1.83;0.65;;;;;;;;;;10477094;28;20025;-78
2023/11/15 17:19:37;;;;;;;1.90;0.68;;;;;;;;;;10503621;28;20245;-70
2023/11/15 17:24:37;;;;;;;2.72;1.27;;;;;;;;;;10488794;28;20387;-71
2023/11/15 17:29:39;;;;;;;2.85;1.50;;;;;;;;;;10490374;28;20196;-75
2023/11/15 17:34:41;;;;;;;3.25;1.85;;;;;;;;;;10488055;28;20060;-74
2023/11/15 17:39:42;;;;;;;5.15;1.70;;;;;;;;;;10468773;28;20103;-75
2023/11/15 17:44:42;;;;;;;5.03;1.40;;;;;;;;;;10461005;28;20032;-76
2023/11/15 17:49:43;;;;;;;3.88;1.77;;;;;;;;;;10486295;28;20037;-77
2023/11/15 17:54:44;;;;;;;4.07;1.85;;;;;;;;;;10465046;28;20056;-76
2023/11/15 17:59:44;;;;;;;7.72;2.42;;;;;;;;;;10482783;28;20037;-76
2023/11/15 18:04:44;;;;;;;4.28;2.50;;;;;;;;;;10497885;28;20350;-76
2023/11/15 18:09:44;;;;;;;4.27;2.47;;;;;;;;;;10480526;28;19908;-75
2023/11/15 18:14:45;;;;;;;9.13;3.50;;;;;;;;;;10485087;28;20346;-76
2023/11/15 18:19:45;;;;;;;6.55;3.97;;;;;;;;;;10484471;28;20060;-76
2023/11/15 18:24:45;;;;;;;9.10;3.78;;;;;;;;;;10481500;28;20028;-70
2023/11/15 18:29:46;;;;;;;8.40;4.32;;;;;;;;;;10486049;28;20021;-66
2023/11/15 18:34:46;;;;;;;6.18;3.38;;;;;;;;;;10488171;28;20094;-66
2023/11/15 18:39:46;;;;;;;7.20;2.95;;;;;;;;;;10486344;28;20029;-66
2023/11/15 18:44:47;;;;;;;7.22;3.83;;;;;;;;;;10473990;28;20275;-67
2023/11/15 18:49:47;;;;;;;8.65;3.95;;;;;;;;;;10481507;28;20096;-70
2023/11/15 18:54:48;;;;;;;8.32;4.72;;;;;;;;;;10477147;28;20298;-73
2023/11/15 18:59:48;;;;;;;8.38;4.53;;;;;;;;;;10482409;28;20330;-73
2023/11/15 19:04:48;;;;;;;16.15;7.40;;;;;;;;;;10482285;28;20081;-70
2023/11/15 19:09:49;;;;;;;20.85;9.32;;;;;;;;;;10483342;28;20481;-70
2023/11/15 19:14:50;;;;;;;17.77;7.70;;;;;;;;;;10480070;28;20029;-70
2023/11/15 19:19:51;;;;;;;11.05;5.28;;;;;;;;;;10482071;28;20024;-71
2023/11/15 19:24:53;;;;;;;10.52;3.50;;;;;;;;;;10477274;28;20490;-69
2023/11/15 19:29:53;;;;;;;4.95;3.00;;;;;;;;;;10479567;28;20223;-70
2023/11/15 19:34:56;;;;;;;5.53;2.33;;;;;;;;;;10470371;28;20047;-69
2023/11/15 19:40:00;;;;;;;3.15;1.48;;;;;;;;;;10474917;28;20036;-70
2023/11/15 19:45:04;;;;;;;2.15;1.20;;;;;;;;;;10477991;28;20020;-71
2023/11/15 19:50:06;;;;;;;1.40;0.82;;;;;;;;;;10478909;28;20302;-71
2023/11/15 19:55:11;;;;;;;1.45;1.00;;;;;;;;;;10484187;28;20028;-70
2023/11/15 20:00:12;;;;;;;3.55;1.30;;;;;;;;;;10482323;28;20376;-69
2023/11/15 20:05:13;;;;;;;1.90;1.20;;;;;;;;;;10476955;28;20072;-70
2023/11/15 20:10:13;;;;;;;1.83;1.40;;;;;;;;;;10470442;28;20104;-71
2023/11/15 20:15:14;;;;;;;2.35;1.10;;;;;;;;;;10483342;28;20296;-70
2023/11/15 20:20:14;;;;;;;2.00;1.20;;;;;;;;;;10485121;28;20051;-70
2023/11/15 20:25:15;;;;;;;1.88;0.80;;;;;;;;;;10475330;28;20029;-72
2023/11/15 20:30:17;;;;;;;0.90;0.50;;;;;;;;;;10485169;28;20035;-72
2023/11/15 20:35:17;;;;;;;0.88;0.75;;;;;;;;;;10475336;28;20074;-72
2023/11/15 20:40:21;;;;;;;2.27;0.80;;;;;;;;;;10458043;28;20228;-70
2023/11/15 20:45:23;;;;;;;2.08;0.80;;;;;;;;;;10487485;28;20047;-69
2023/11/15 20:50:23;;;;;;;0.93;0.75;;;;;;;;;;10487283;28;20040;-70
2023/11/15 20:55:23;;;;;;;1.70;0.75;;;;;;;;;;10487770;28;20270;-70
2023/11/15 21:00:25;;;;;;;3.17;1.10;;;;;;;;;;10485733;28;20044;-69
2023/11/15 21:05:27;;;;;;;2.17;0.90;;;;;;;;;;10486616;28;20132;-70
2023/11/15 21:10:27;;;;;;;1.30;0.73;;;;;;;;;;10483708;28;20135;-70
2023/11/15 21:15:27;;;;;;;2.70;1.15;;;;;;;;;;10482830;28;20075;-68
2023/11/15 21:20:28;;;;;;;2.17;1.25;;;;;;;;;;10486438;28;20035;-70
2023/11/15 21:25:28;;;;;;;4.07;1.33;;;;;;;;;;10486040;28;20035;-69
2023/11/15 21:30:30;;;;;;;1.30;0.90;;;;;;;;;;10494073;28;20020;-69
2023/11/15 21:35:31;;;;;;;2.35;1.10;;;;;;;;;;10480641;28;20071;-69
2023/11/15 21:40:32;;;;;;;2.33;1.10;;;;;;;;;;10487600;28;20211;-69
2023/11/15 21:45:32;;;;;;;1.20;0.80;;;;;;;;;;10483958;28;20204;-70
2023/11/15 21:50:32;;;;;;;1.50;0.65;;;;;;;;;;10459215;28;20181;-68
2023/11/15 21:55:33;;;;;;;0.95;0.88;;;;;;;;;;10482961;28;20028;-69
2023/11/15 22:00:33;;;;;;;1.95;0.85;;;;;;;;;;10481156;28;20032;-69
2023/11/15 22:05:35;;;;;;;2.47;1.20;;;;;;;;;;10456267;28;20252;-70
2023/11/15 22:10:35;;;;;;;3.95;1.60;;;;;;;;;;10483331;28;20017;-70
2023/11/15 22:15:35;;;;;;;1.83;1.40;;;;;;;;;;10483747;28;20027;-69
2023/11/15 22:20:35;;;;;;;2.78;1.70;;;;;;;;;;10491211;28;20025;-71
2023/11/15 22:25:36;;;;;;;4.72;1.55;;;;;;;;;;10469398;28;20024;-70
2023/11/15 22:30:36;;;;;;;5.03;1.77;;;;;;;;;;10478354;28;20029;-70
2023/11/15 22:35:36;;;;;;;2.65;1.50;;;;;;;;;;10461441;28;20460;-70
2023/11/15 22:40:36;;;;;;;3.63;1.55;;;;;;;;;;10479157;28;20051;-70
2023/11/15 22:45:36;;;;;;;3.28;1.42;;;;;;;;;;10482748;28;20242;-70
2023/11/15 22:50:39;;;;;;;5.13;1.63;;;;;;;;;;10486224;28;20062;-69
2023/11/15 22:55:39;;;;;;;41.88;4.90;;;;;;;;;;10481629;28;20040;-69
2023/11/15 23:00:39;;;;;;;1.67;1.17;;;;;;;;;;10474322;28;20025;-69
2023/11/15 23:05:40;;;;;;;2.92;1.80;;;;;;;;;;10478634;28;20039;-69
2023/11/15 23:10:42;;;;;;;1.48;1.20;;;;;;;;;;10485928;28;20016;-71
2023/11/15 23:15:43;;;;;;;1.23;1.00;;;;;;;;;;10482182;28;20021;-72
2023/11/15 23:20:47;;;;;;;1.10;0.88;;;;;;;;;;10480265;28;20335;-74
2023/11/15 23:25:50;;;;;;;1.45;1.00;;;;;;;;;;10472545;28;20028;-73
2023/11/15 23:30:55;;;;;;;2.35;1.20;;;;;;;;;;10474903;28;20033;-74
2023/11/15 23:35:55;;;;;;;0.82;0.65;;;;;;;;;;10474192;28;20231;-73
2023/11/15 23:40:55;;;;;;;1.30;0.70;;;;;;;;;;10474838;28;20048;-72
2023/11/15 23:45:57;;;;;;;0.68;0.57;;;;;;;;;;10474765;28;20290;-72
2023/11/15 23:50:57;;;;;;;1.70;1.00;;;;;;;;;;10479302;28;20017;-73
2023/11/15 23:55:57;;;;;;;0.90;0.70;;;;;;;;;;10475748;28;20095;-72
